createdAt,value
2018-04-23T00:00:15.165Z,55.60
2018-04-23T00:02:42.623Z,55.50
2018-04-23T00:05:10.096Z,55.60
2018-04-23T00:07:37.564Z,55.70
2018-04-23T00:10:05.809Z,55.40
2018-04-23T00:12:33.264Z,55.40
2018-04-23T00:15:00.739Z,55.40
2018-04-23T00:17:28.193Z,55.40
2018-04-23T00:19:55.648Z,55.50
2018-04-23T00:22:23.144Z,55.20
2018-04-23T00:24:50.598Z,55.40
2018-04-23T00:27:18.069Z,55.30
2018-04-23T00:29:45.528Z,55.20
2018-04-23T00:32:13.010Z,55.40
2018-04-23T00:34:40.489Z,55.20
2018-04-23T00:37:07.981Z,55.30
2018-04-23T00:39:35.431Z,55.20
2018-04-23T00:42:02.900Z,54.90
2018-04-23T00:44:31.132Z,55.00
2018-04-23T00:46:58.588Z,55.10
2018-04-23T00:49:26.055Z,55.30
2018-04-23T00:51:54.275Z,55.20
2018-04-23T00:54:21.723Z,55.10
2018-04-23T00:56:49.194Z,55.20
2018-04-23T00:59:16.684Z,55.00
2018-04-23T01:01:44.158Z,55.20
2018-04-23T01:04:11.627Z,55.10
2018-04-23T01:06:39.092Z,55.10
2018-04-23T01:09:06.563Z,55.10
2018-04-23T01:11:34.023Z,54.90
2018-04-23T01:14:02.248Z,54.80
2018-04-23T01:16:29.715Z,54.80
2018-04-23T01:18:57.185Z,54.90
2018-04-23T01:21:24.644Z,55.00
2018-04-23T01:23:52.113Z,54.90
2018-04-23T01:26:19.585Z,54.90
2018-04-23T01:28:47.804Z,54.50
2018-04-23T01:31:15.268Z,54.50
2018-04-23T01:33:42.753Z,54.40
2018-04-23T01:36:10.211Z,54.50
2018-04-23T01:38:37.659Z,54.50
2018-04-23T01:41:05.119Z,54.30
2018-04-23T01:43:32.576Z,54.30
2018-04-23T01:46:00.047Z,54.00
2018-04-23T01:48:27.525Z,54.10
2018-04-23T01:50:55.001Z,54.00
2018-04-23T01:53:22.502Z,53.90
2018-04-23T01:55:49.992Z,53.80
2018-04-23T01:58:18.243Z,53.70
2018-04-23T02:00:45.724Z,53.60
2018-04-23T02:03:13.992Z,53.50
2018-04-23T02:05:41.460Z,53.50
2018-04-23T02:08:08.932Z,53.60
2018-04-23T02:10:37.172Z,53.20
2018-04-23T02:13:04.644Z,53.20
2018-04-23T02:15:32.096Z,53.20
2018-04-23T02:17:59.568Z,53.20
2018-04-23T02:20:27.797Z,53.10
2018-04-23T02:22:55.296Z,53.10
2018-04-23T02:25:22.719Z,52.90
2018-04-23T02:27:50.180Z,53.00
2018-04-23T02:30:18.503Z,52.60
2018-04-23T02:32:46.120Z,52.60
2018-04-23T02:35:13.603Z,52.90
2018-04-23T02:37:41.091Z,52.90
2018-04-23T02:40:08.555Z,52.90
2018-04-23T02:42:36.046Z,53.00
2018-04-23T02:45:03.504Z,52.80
2018-04-23T02:47:30.964Z,52.70
2018-04-23T02:49:58.431Z,52.40
2018-04-23T02:52:25.912Z,52.30
2018-04-23T02:54:54.132Z,52.20
2018-04-23T02:57:21.628Z,52.20
2018-04-23T02:59:49.103Z,51.80
2018-04-23T03:02:17.332Z,52.60
2018-04-23T03:04:44.808Z,52.00
2018-04-23T03:07:12.278Z,51.90
2018-04-23T03:09:39.733Z,51.90
2018-04-23T03:12:07.199Z,51.80
2018-04-23T03:14:34.717Z,51.70
2018-04-23T03:17:02.180Z,51.60
2018-04-23T03:19:30.403Z,51.50
2018-04-23T03:21:58.648Z,51.50
2018-04-23T03:24:26.111Z,51.50
2018-04-23T03:26:53.567Z,51.40
2018-04-23T03:29:21.043Z,51.20
2018-04-23T03:31:48.508Z,51.40
2018-04-23T03:34:16.732Z,51.30
2018-04-23T03:36:44.200Z,51.20
2018-04-23T03:39:11.672Z,51.20
2018-04-23T03:41:39.122Z,51.20
2018-04-23T03:44:06.596Z,51.20
2018-04-23T03:46:34.047Z,51.10
2018-04-23T03:49:01.516Z,51.10
2018-04-23T03:51:28.999Z,51.20
2018-04-23T03:53:56.463Z,51.50
2018-04-23T03:56:23.917Z,51.60
2018-04-23T03:58:52.155Z,53.20
2018-04-23T04:01:19.626Z,53.10
2018-04-23T04:03:47.108Z,52.90
2018-04-23T04:06:15.344Z,52.40
2018-04-23T04:08:42.827Z,52.40
2018-04-23T04:11:10.275Z,52.10
2018-04-23T04:13:49.392Z,51.70
2018-04-23T04:16:28.565Z,51.60
2018-04-23T04:18:56.024Z,51.50
2018-04-23T04:21:24.248Z,51.50
2018-04-23T04:23:51.719Z,51.50
2018-04-23T04:26:19.177Z,51.50
2018-04-23T04:28:46.644Z,51.40
2018-04-23T04:31:14.129Z,51.30
2018-04-23T04:33:41.600Z,51.30
2018-04-23T04:36:09.089Z,51.10
2018-04-23T04:38:36.572Z,51.00
2018-04-23T04:41:04.027Z,51.00
2018-04-23T04:43:31.507Z,51.00
2018-04-23T04:45:59.739Z,51.10
2018-04-23T04:48:27.224Z,51.10
2018-04-23T04:50:54.691Z,51.20
2018-04-23T04:53:22.920Z,51.10
2018-04-23T04:55:50.409Z,51.00
2018-04-23T04:58:17.885Z,50.90
2018-04-23T05:00:45.353Z,50.90
2018-04-23T05:03:13.591Z,50.80
2018-04-23T05:05:41.048Z,50.80
2018-04-23T05:08:08.512Z,50.80
2018-04-23T05:10:35.967Z,50.70
2018-04-23T05:13:04.191Z,50.70
2018-04-23T05:15:31.643Z,50.60
2018-04-23T05:17:59.168Z,50.60
2018-04-23T05:20:26.636Z,50.70
2018-04-23T05:22:54.864Z,50.80
2018-04-23T05:25:22.327Z,50.80
2018-04-23T05:27:49.819Z,51.50
2018-04-23T05:30:18.055Z,50.50
2018-04-23T05:32:45.530Z,50.50
2018-04-23T05:35:12.985Z,50.90
2018-04-23T05:37:40.496Z,50.70
2018-04-23T05:40:07.915Z,50.60
2018-04-23T05:42:35.381Z,50.60
2018-04-23T05:45:02.850Z,50.60
2018-04-23T05:47:31.084Z,50.60
2018-04-23T05:49:59.324Z,50.30
2018-04-23T05:52:26.783Z,50.30
2018-04-23T05:54:54.243Z,50.30
2018-04-23T05:57:21.691Z,50.30
2018-04-23T05:59:49.148Z,50.20
2018-04-23T06:02:16.604Z,50.00
2018-04-23T06:04:44.055Z,50.40
2018-04-23T06:07:12.276Z,50.20
2018-04-23T06:09:39.744Z,50.10
2018-04-23T06:12:07.209Z,50.10
2018-04-23T06:14:34.688Z,50.10
2018-04-23T06:17:02.140Z,50.30
2018-04-23T06:19:29.604Z,50.20
2018-04-23T06:21:57.841Z,50.40
2018-04-23T06:24:25.308Z,50.30
2018-04-23T06:26:52.762Z,50.50
2018-04-23T06:29:20.257Z,50.80
2018-04-23T06:31:47.704Z,50.70
2018-04-23T06:34:15.194Z,50.90
2018-04-23T06:36:43.412Z,51.00
2018-04-23T06:39:10.884Z,51.00
2018-04-23T06:41:38.348Z,51.00
2018-04-23T06:44:05.808Z,51.10
2018-04-23T06:46:33.281Z,51.10
2018-04-23T06:49:01.528Z,51.00
2018-04-23T06:51:29.021Z,51.00
2018-04-23T06:53:57.255Z,51.00
2018-04-23T06:56:24.721Z,51.00
2018-04-23T06:58:52.184Z,50.90
2018-04-23T07:01:19.686Z,50.90
2018-04-23T07:03:47.139Z,51.10
2018-04-23T07:06:14.596Z,51.30
2018-04-23T07:08:42.078Z,51.40
2018-04-23T07:11:09.539Z,51.40
2018-04-23T07:13:37.004Z,51.50
2018-04-23T07:16:04.480Z,51.40
2018-04-23T07:18:31.964Z,51.60
2018-04-23T07:20:59.441Z,51.50
2018-04-23T07:23:26.936Z,51.40
2018-04-23T07:25:54.391Z,51.40
2018-04-23T07:28:21.864Z,51.60
2018-04-23T07:30:49.332Z,52.80
2018-04-23T07:33:16.798Z,53.50
2018-04-23T07:35:44.280Z,54.10
2018-04-23T07:38:11.742Z,54.10
2018-04-23T07:40:39.245Z,53.80
2018-04-23T07:43:06.707Z,53.60
2018-04-23T07:45:34.181Z,53.60
2018-04-23T07:48:01.675Z,53.20
2018-04-23T07:50:29.141Z,53.30
2018-04-23T07:52:56.640Z,52.60
2018-04-23T07:55:24.103Z,52.30
2018-04-23T07:57:51.580Z,51.90
2018-04-23T08:00:19.037Z,52.00
2018-04-23T08:02:46.497Z,52.00
2018-04-23T08:05:13.980Z,51.60
2018-04-23T08:07:41.427Z,51.50
2018-04-23T08:10:09.647Z,51.20
2018-04-23T08:12:37.106Z,51.20
2018-04-23T08:15:04.567Z,51.30
2018-04-23T08:17:32.027Z,50.70
2018-04-23T08:19:59.488Z,50.60
2018-04-23T08:22:26.960Z,50.10
2018-04-23T08:24:54.440Z,49.10
2018-04-23T08:27:22.686Z,47.40
2018-04-23T08:29:50.164Z,47.40
2018-04-23T08:32:17.632Z,47.80
2018-04-23T08:34:45.889Z,48.30
2018-04-23T08:37:13.340Z,48.20
2018-04-23T08:39:40.800Z,48.40
2018-04-23T08:42:08.262Z,48.80
2018-04-23T08:44:35.718Z,48.90
2018-04-23T08:47:03.201Z,49.10
2018-04-23T08:49:31.425Z,49.50
2018-04-23T08:51:58.884Z,49.40
2018-04-23T08:54:26.340Z,49.30
2018-04-23T08:56:53.813Z,48.70
2018-04-23T08:59:21.279Z,47.70
2018-04-23T09:01:48.752Z,46.80
2018-04-23T09:04:16.210Z,46.20
2018-04-23T09:06:43.672Z,45.90
2018-04-23T09:09:11.133Z,44.10
2018-04-23T09:11:39.362Z,43.40
2018-04-23T09:14:06.816Z,43.40
2018-04-23T09:16:34.277Z,43.30
2018-04-23T09:19:01.732Z,43.60
2018-04-23T09:21:29.191Z,42.90
2018-04-23T09:23:56.644Z,42.20
2018-04-23T09:26:24.121Z,42.40
2018-04-23T09:28:51.578Z,41.20
2018-04-23T09:31:19.081Z,40.50
2018-04-23T09:33:46.542Z,41.30
2018-04-23T09:36:14.003Z,40.60
2018-04-23T09:38:41.460Z,40.70
2018-04-23T09:41:08.921Z,39.80
2018-04-23T09:43:36.363Z,40.70
2018-04-23T09:46:04.591Z,39.30
2018-04-23T09:48:32.035Z,39.20
2018-04-23T09:50:59.495Z,39.00
2018-04-23T09:53:26.957Z,38.70
2018-04-23T09:55:54.408Z,38.50
2018-04-23T09:58:21.868Z,39.50
2018-04-23T10:00:49.324Z,39.30
2018-04-23T10:03:16.778Z,39.00
2018-04-23T10:05:44.222Z,39.10
2018-04-23T10:08:11.700Z,38.70
2018-04-23T10:10:39.161Z,39.10
2018-04-23T10:13:06.609Z,38.90
2018-04-23T10:15:34.074Z,37.40
2018-04-23T10:18:01.529Z,36.50
2018-04-23T10:20:28.972Z,34.60
2018-04-23T10:22:56.441Z,34.60
2018-04-23T10:25:23.880Z,34.70
2018-04-23T10:27:51.324Z,35.40
2018-04-23T10:30:18.777Z,35.60
2018-04-23T10:32:46.236Z,36.20
2018-04-23T10:35:14.462Z,36.00
2018-04-23T10:37:41.917Z,35.80
2018-04-23T10:40:09.369Z,36.10
2018-04-23T10:42:36.825Z,36.20
2018-04-23T10:45:04.281Z,36.00
2018-04-23T10:47:31.735Z,33.50
2018-04-23T10:49:59.199Z,31.80
2018-04-23T10:52:26.664Z,32.20
2018-04-23T10:54:54.111Z,33.20
2018-04-23T10:57:21.563Z,33.20
2018-04-23T10:59:49.031Z,33.00
2018-04-23T11:02:16.503Z,34.20
2018-04-23T11:04:43.951Z,34.20
2018-04-23T11:07:11.408Z,34.90
2018-04-23T11:09:38.944Z,29.90
2018-04-23T11:12:06.355Z,30.20
2018-04-23T11:14:33.799Z,28.30
2018-04-23T11:17:01.255Z,28.30
2018-04-23T11:19:28.720Z,29.20
2018-04-23T11:21:56.188Z,29.70
2018-04-23T11:24:24.423Z,30.80
2018-04-23T11:26:51.888Z,30.70
2018-04-23T11:29:19.339Z,29.90
2018-04-23T11:31:46.802Z,31.00
2018-04-23T11:34:14.244Z,32.10
2018-04-23T11:36:41.699Z,31.80
2018-04-23T11:39:09.156Z,30.80
2018-04-23T11:41:36.614Z,29.90
2018-04-23T11:44:04.073Z,26.90
2018-04-23T11:46:31.528Z,26.00
2018-04-23T11:48:58.985Z,25.40
2018-04-23T11:51:26.448Z,24.30
2018-04-23T11:53:53.913Z,23.90
2018-04-23T11:56:21.385Z,25.10
2018-04-23T11:58:48.872Z,27.50
2018-04-23T12:01:17.101Z,25.40
2018-04-23T12:03:44.576Z,24.90
2018-04-23T12:06:12.036Z,26.40
2018-04-23T12:08:39.497Z,26.70
2018-04-23T12:11:06.959Z,27.10
2018-04-23T12:13:34.422Z,26.50
2018-04-23T12:16:01.868Z,26.20
2018-04-23T12:18:29.350Z,27.10
2018-04-23T12:20:57.572Z,22.70
2018-04-23T12:23:25.031Z,22.70
2018-04-23T12:25:52.488Z,20.90
2018-04-23T12:28:19.947Z,20.50
2018-04-23T12:30:47.404Z,19.30
2018-04-23T12:33:14.856Z,18.90
2018-04-23T12:35:42.309Z,19.40
2018-04-23T12:38:09.773Z,19.20
2018-04-23T12:40:37.232Z,19.30
2018-04-23T12:43:04.692Z,18.80
2018-04-23T12:45:32.165Z,21.10
2018-04-23T12:47:59.616Z,24.00
2018-04-23T12:50:27.077Z,25.20
2018-04-23T12:52:54.544Z,27.20
2018-04-23T12:55:21.999Z,26.50
2018-04-23T12:57:49.456Z,26.70
2018-04-23T13:00:16.987Z,25.30
2018-04-23T13:02:44.449Z,25.40
2018-04-23T13:05:11.905Z,25.80
2018-04-23T13:07:39.396Z,27.50
2018-04-23T13:10:06.850Z,28.80
2018-04-23T13:12:34.319Z,28.90
2018-04-23T13:15:01.800Z,29.50
2018-04-23T13:17:29.272Z,28.00
2018-04-23T13:19:56.718Z,26.10
2018-04-23T13:22:24.186Z,26.30
2018-04-23T13:24:52.409Z,21.60
2018-04-23T13:27:19.898Z,21.50
2018-04-23T13:29:48.120Z,18.40
2018-04-23T13:32:15.585Z,18.40
2018-04-23T13:34:43.034Z,20.20
2018-04-23T13:37:10.493Z,21.90
2018-04-23T13:39:37.952Z,21.50
2018-04-23T13:42:05.423Z,22.10
2018-04-23T13:44:32.879Z,20.80
2018-04-23T13:47:00.332Z,19.80
2018-04-23T13:49:27.791Z,20.50
2018-04-23T13:51:55.252Z,19.80
2018-04-23T13:54:23.490Z,17.90
2018-04-23T13:56:50.936Z,17.90
2018-04-23T13:59:19.174Z,16.60
2018-04-23T14:01:46.627Z,16.60
2018-04-23T14:04:14.079Z,17.80
2018-04-23T14:06:41.552Z,19.60
2018-04-23T14:09:09.037Z,19.90
2018-04-23T14:11:36.494Z,18.60
2018-04-23T14:14:03.974Z,20.40
2018-04-23T14:16:31.412Z,21.70
2018-04-23T14:18:59.648Z,22.40
2018-04-23T14:21:27.120Z,22.40
2018-04-23T14:23:54.604Z,24.50
2018-04-23T14:26:22.037Z,25.50
2018-04-23T14:28:50.247Z,27.60
2018-04-23T14:31:17.692Z,27.60
2018-04-23T14:33:45.916Z,27.60
2018-04-23T14:36:13.371Z,27.60
2018-04-23T14:38:40.836Z,27.80
2018-04-23T14:41:09.049Z,29.50
2018-04-23T14:43:37.307Z,30.00
2018-04-23T14:46:04.766Z,29.90
2018-04-23T14:48:32.244Z,30.20
2018-04-23T14:51:00.459Z,30.90
2018-04-23T14:53:28.741Z,30.90
2018-04-23T14:55:56.198Z,30.00
2018-04-23T14:58:23.663Z,28.50
2018-04-23T15:00:51.119Z,25.80
2018-04-23T15:03:18.591Z,25.80
2018-04-23T15:05:46.048Z,27.10
2018-04-23T15:08:13.530Z,28.30
2018-04-23T15:10:40.979Z,29.40
2018-04-23T15:13:08.452Z,30.50
2018-04-23T15:15:36.729Z,30.30
2018-04-23T15:18:04.195Z,30.20
2018-04-23T15:20:31.657Z,29.70
2018-04-23T15:22:59.107Z,29.70
2018-04-23T15:25:27.340Z,30.00
2018-04-23T15:27:54.800Z,30.00
2018-04-23T15:30:22.256Z,30.10
2018-04-23T15:32:49.704Z,30.60
2018-04-23T15:35:17.164Z,31.40
2018-04-23T15:37:44.627Z,31.60
2018-04-23T15:40:12.090Z,31.20
2018-04-23T15:42:39.574Z,31.00
2018-04-23T15:45:07.032Z,32.50
2018-04-23T15:47:35.257Z,33.70
2018-04-23T15:50:02.713Z,33.70
2018-04-23T15:52:30.172Z,32.40
2018-04-23T15:54:57.627Z,33.70
2018-04-23T15:57:25.101Z,34.30
2018-04-23T15:59:52.616Z,33.80
2018-04-23T16:02:20.849Z,34.00
2018-04-23T16:04:48.305Z,34.00
2018-04-23T16:07:15.781Z,33.70
2018-04-23T16:09:43.240Z,33.40
2018-04-23T16:12:13.327Z,33.00
2018-04-23T16:14:40.811Z,33.50
2018-04-23T16:17:08.264Z,33.60
2018-04-23T16:19:36.864Z,34.00
2018-04-23T16:22:04.347Z,34.20
2018-04-23T16:24:31.877Z,34.40
2018-04-23T16:26:59.284Z,34.30
2018-04-23T16:29:26.739Z,34.70
2018-04-23T16:31:54.251Z,34.40
2018-04-23T16:34:22.478Z,34.00
2018-04-23T16:36:49.939Z,34.00
2018-04-23T16:39:17.547Z,34.60
2018-04-23T16:41:45.000Z,34.30
2018-04-23T16:44:12.457Z,34.90
2018-04-23T16:46:39.903Z,34.10
2018-04-23T16:49:07.376Z,33.80
2018-04-23T16:51:34.851Z,33.60
2018-04-23T16:54:03.079Z,33.50
2018-04-23T16:56:30.533Z,33.40
2018-04-23T16:58:58.016Z,33.10
2018-04-23T17:01:25.490Z,32.90
2018-04-23T17:03:53.709Z,33.20
2018-04-23T17:06:21.165Z,33.20
2018-04-23T17:08:48.621Z,33.20
2018-04-23T17:11:16.084Z,33.10
2018-04-23T17:13:43.555Z,33.20
2018-04-23T17:16:11.017Z,33.20
2018-04-23T17:18:38.472Z,33.30
2018-04-23T17:21:07.116Z,33.30
2018-04-23T17:23:34.568Z,33.30
2018-04-23T17:26:02.064Z,33.30
2018-04-23T17:31:19.880Z,33.50
2018-04-23T17:33:47.329Z,33.60
2018-04-23T17:36:15.579Z,33.70
2018-04-23T17:38:43.017Z,33.70
2018-04-23T17:41:10.524Z,33.80
2018-04-23T17:43:38.943Z,33.80
2018-04-23T17:46:06.444Z,34.20
2018-04-23T17:48:33.887Z,34.60
2018-04-23T17:51:01.364Z,35.10
2018-04-23T17:53:28.804Z,35.20
2018-04-23T17:55:56.261Z,35.60
2018-04-23T17:58:23.731Z,35.80
2018-04-23T18:00:51.192Z,36.00
2018-04-23T18:03:18.686Z,36.40
2018-04-23T18:05:46.147Z,36.50
2018-04-23T18:08:13.588Z,36.70
2018-04-23T18:10:41.936Z,37.00
2018-04-23T18:13:09.452Z,36.90
2018-04-23T18:15:37.664Z,37.20
2018-04-23T18:18:06.313Z,37.60
2018-04-23T18:20:33.778Z,38.30
2018-04-23T18:23:01.240Z,37.90
2018-04-23T18:25:28.703Z,37.90
2018-04-23T18:27:56.159Z,38.30
2018-04-23T18:30:23.660Z,38.10
2018-04-23T18:32:51.103Z,38.30
2018-04-23T18:35:18.564Z,39.10
2018-04-23T18:37:46.068Z,38.40
2018-04-23T18:40:13.528Z,38.60
2018-04-23T18:42:41.003Z,38.60
2018-04-23T18:45:08.502Z,38.60
2018-04-23T18:47:35.985Z,38.70
2018-04-23T18:50:04.214Z,38.70
2018-04-23T18:52:31.676Z,38.60
2018-04-23T18:54:59.158Z,39.00
2018-04-23T18:57:27.435Z,38.90
2018-04-23T18:59:55.657Z,38.90
2018-04-23T19:02:23.129Z,38.80
2018-04-23T19:04:50.581Z,39.00
2018-04-23T19:07:18.045Z,39.10
2018-04-23T19:09:45.504Z,39.30
2018-04-23T19:12:12.959Z,39.60
2018-04-23T19:14:40.527Z,39.40
2018-04-23T19:17:07.972Z,40.00
2018-04-23T19:19:35.428Z,39.80
2018-04-23T19:22:02.895Z,39.80
2018-04-23T19:24:30.345Z,39.80
2018-04-23T19:26:57.800Z,39.70
2018-04-23T19:29:25.282Z,39.80
2018-04-23T19:31:54.048Z,40.00
2018-04-23T19:34:21.504Z,39.90
2018-04-23T19:36:48.960Z,40.10
2018-04-23T19:39:17.226Z,40.40
2018-04-23T19:41:45.460Z,40.30
2018-04-23T19:44:13.705Z,40.30
2018-04-23T19:46:41.178Z,40.30
2018-04-23T19:49:08.632Z,40.40
2018-04-23T19:51:36.088Z,40.40
2018-04-23T19:54:03.540Z,40.40
2018-04-23T19:56:31.036Z,40.50
2018-04-23T19:58:58.476Z,40.60
2018-04-23T20:01:26.712Z,40.60
2018-04-23T20:03:54.928Z,40.60
2018-04-23T20:06:23.157Z,40.50
2018-04-23T20:08:50.621Z,40.50
2018-04-23T20:11:18.073Z,40.60
2018-04-23T20:13:45.531Z,40.60
2018-04-23T20:16:12.993Z,40.80
2018-04-23T20:18:40.447Z,40.70
2018-04-23T20:21:09.523Z,40.90
2018-04-23T20:23:36.980Z,40.80
2018-04-23T20:26:04.435Z,40.80
2018-04-23T20:28:31.901Z,40.90
2018-04-23T20:30:59.356Z,41.80
2018-04-23T20:33:26.876Z,41.20
2018-04-23T20:35:54.298Z,41.10
2018-04-23T20:38:21.740Z,41.00
2018-04-23T20:40:49.203Z,41.30
2018-04-23T20:43:16.663Z,41.30
2018-04-23T20:45:44.121Z,41.40
2018-04-23T20:48:11.584Z,41.30
2018-04-23T20:50:39.064Z,41.30
2018-04-23T20:53:06.562Z,41.40
2018-04-23T20:55:34.025Z,41.30
2018-04-23T20:58:01.483Z,41.10
2018-04-23T21:00:28.939Z,41.40
2018-04-23T21:02:56.399Z,41.80
2018-04-23T21:05:23.859Z,41.20
2018-04-23T21:07:52.130Z,41.30
2018-04-23T21:10:19.563Z,41.30
2018-04-23T21:12:47.801Z,41.50
2018-04-23T21:15:15.381Z,41.50
2018-04-23T21:17:43.014Z,41.50
2018-04-23T21:20:10.474Z,41.50
2018-04-23T21:22:37.933Z,41.60
2018-04-23T21:25:05.407Z,41.60
2018-04-23T21:27:33.503Z,41.40
2018-04-23T21:30:01.720Z,41.50
2018-04-23T21:32:29.185Z,41.40
2018-04-23T21:34:56.632Z,41.40
2018-04-23T21:37:24.100Z,41.50
2018-04-23T21:39:51.555Z,41.60
2018-04-23T21:42:19.016Z,41.80
2018-04-23T21:44:46.464Z,41.60
2018-04-23T21:47:13.915Z,41.60
2018-04-23T21:49:41.368Z,41.50
2018-04-23T21:52:08.820Z,41.40
2018-04-23T21:54:36.263Z,41.30
2018-04-23T21:57:04.493Z,41.60
2018-04-23T21:59:31.947Z,41.50
2018-04-23T22:01:59.441Z,41.70
2018-04-23T22:04:26.868Z,41.70
2018-04-23T22:06:54.328Z,41.60
2018-04-23T22:09:21.791Z,41.90
2018-04-23T22:11:49.253Z,42.10
2018-04-23T22:14:16.705Z,42.10
2018-04-23T22:16:44.164Z,42.10
2018-04-23T22:19:11.611Z,41.90
2018-04-23T22:21:39.070Z,42.00
2018-04-23T22:24:06.534Z,42.00
2018-04-23T22:26:33.991Z,41.80
2018-04-23T22:29:01.551Z,42.00
2018-04-23T22:31:28.958Z,42.40
2018-04-23T22:33:56.436Z,42.30
2018-04-23T22:36:23.891Z,42.20
2018-04-23T22:38:51.364Z,42.30
2018-04-23T22:41:18.815Z,42.20
2018-04-23T22:43:46.279Z,42.20
2018-04-23T22:46:13.721Z,42.10
2018-04-23T22:48:41.179Z,42.20
2018-04-23T22:51:08.620Z,42.00
2018-04-23T22:53:36.076Z,42.40
2018-04-23T22:56:03.585Z,42.30
2018-04-23T22:58:31.127Z,42.50
2018-04-23T23:00:58.500Z,42.30
2018-04-23T23:03:25.963Z,42.30
2018-04-23T23:05:53.412Z,42.30
2018-04-23T23:08:20.868Z,42.40
2018-04-23T23:10:48.315Z,42.30
2018-04-23T23:13:15.814Z,42.30
2018-04-23T23:15:44.062Z,42.40
2018-04-23T23:18:11.518Z,42.30
2018-04-23T23:20:38.960Z,42.20
2018-04-23T23:23:06.416Z,42.20
2018-04-23T23:25:33.876Z,42.10
2018-04-23T23:28:01.353Z,42.00
2018-04-23T23:30:28.792Z,42.00
2018-04-23T23:32:56.235Z,42.10
2018-04-23T23:35:23.694Z,42.10
2018-04-23T23:37:51.148Z,42.10
2018-04-23T23:40:18.596Z,42.10
2018-04-23T23:42:46.060Z,42.10
2018-04-23T23:45:13.597Z,42.00
2018-04-23T23:47:41.844Z,42.10
2018-04-23T23:50:09.299Z,42.10
2018-04-23T23:52:36.745Z,41.90
2018-04-23T23:55:04.196Z,42.10
2018-04-23T23:57:31.645Z,42.10
2018-04-23T23:59:59.112Z,42.10
